NZTE weather

Public forecast

Using degrees Celsius for public forecast. Weather courtesy of forecast.io.

Closest aviation weather report (METAR) to Te Kowhai Airfield

Closest report is Auckland International Airport, 47.6 nm (88.1 km) NNW. Retrieved 2020/08/13 17:30 UTC (0 seconds ago):

NZAA 131730Z AUTO 17005KT 9999 NCD 09/08 Q1017 NOSIG

Closest aviation forecast (TAF) to Te Kowhai Airfield

Closest forecast is Auckland International Airport, 47.6 nm (88.1 km) NNW. Retrieved 2020/08/13 12:09 UTC (5 hours ago):

TAF TAF NZAA 131106Z 1312/1412 15005KT 9999 FEW030 BKN045 BECMG 1322/1400 09010KT BECMG 1405/1407 15008KT